createdAt,value
2022-10-14T00:01:20.769Z,691.75
2022-10-14T00:03:49.247Z,815.20
2022-10-14T00:06:22.672Z,920.25
2022-10-14T00:08:50.762Z,729.90
2022-10-14T00:11:22.020Z,892.78
2022-10-14T00:13:52.301Z,839.33
2022-10-14T00:16:22.534Z,783.47
2022-10-14T00:18:51.102Z,816.05
2022-10-14T00:21:19.552Z,847.22
2022-10-14T00:23:48.023Z,869.75
2022-10-14T00:26:18.393Z,805.30
2022-10-14T00:28:46.628Z,704.15
2022-10-14T00:31:16.997Z,774.75
2022-10-14T00:33:48.664Z,747.92
2022-10-14T00:36:18.880Z,983.85
2022-10-14T00:38:48.928Z,1069.50
2022-10-14T00:41:19.394Z,1074.10
2022-10-14T00:43:58.291Z,1085.22
2022-10-14T00:46:29.593Z,1107.03
2022-10-14T00:49:05.181Z,712.50
2022-10-14T00:51:33.700Z,1032.28
2022-10-14T00:54:02.153Z,1035.18
2022-10-14T00:56:31.979Z,1097.90
2022-10-14T00:59:01.747Z,1098.70
2022-10-14T01:01:31.588Z,986.72
2022-10-14T01:03:59.589Z,1005.63
2022-10-14T01:06:44.056Z,1030.38
2022-10-14T01:09:25.463Z,1064.30
2022-10-14T01:12:27.045Z,982.95
2022-10-14T01:14:59.968Z,1032.25
2022-10-14T01:17:40.016Z,1046.47
2022-10-14T01:20:52.561Z,1070.40
2022-10-14T01:24:05.078Z,1110.95
2022-10-14T01:26:57.834Z,1112.65
2022-10-14T01:29:55.532Z,1053.00
2022-10-14T01:32:29.016Z,1067.88
2022-10-14T01:35:03.521Z,1109.00
2022-10-14T01:37:35.269Z,1070.47
2022-10-14T01:40:13.324Z,1071.18
2022-10-14T01:42:43.662Z,1122.50
2022-10-14T01:45:19.992Z,1069.18
2022-10-14T01:47:51.341Z,1099.35
2022-10-14T01:50:22.205Z,1075.63
2022-10-14T01:52:53.994Z,794.88
2022-10-14T01:55:26.544Z,1128.78
2022-10-14T01:57:58.203Z,1120.78
2022-10-14T02:00:26.761Z,1119.13
2022-10-14T02:02:56.231Z,1129.82
2022-10-14T02:05:30.804Z,1196.68
2022-10-14T02:08:04.600Z,1068.70
2022-10-14T02:10:42.764Z,1076.70
2022-10-14T02:13:29.277Z,1030.10
2022-10-14T02:18:41.174Z,1053.60
2022-10-14T02:21:17.125Z,1175.30
2022-10-14T02:23:49.507Z,1130.88
2022-10-14T02:26:18.371Z,1111.13
2022-10-14T02:28:48.689Z,1284.35
2022-10-14T02:31:19.421Z,1327.25
2022-10-14T02:33:52.914Z,1323.78
2022-10-14T02:36:24.171Z,1111.55
2022-10-14T02:38:54.443Z,1081.18
2022-10-14T02:41:26.022Z,1098.18
2022-10-14T02:43:54.116Z,1138.53
2022-10-14T02:46:22.898Z,1272.57
2022-10-14T02:48:52.388Z,1316.57
2022-10-14T02:51:20.704Z,1113.38
2022-10-14T02:53:48.744Z,1084.95
2022-10-14T02:56:18.646Z,1237.32
2022-10-14T02:58:46.722Z,1149.80
2022-10-14T03:01:14.749Z,1314.43
2022-10-14T03:03:43.133Z,1095.38
2022-10-14T03:06:12.646Z,1111.75
2022-10-14T03:08:41.927Z,1134.47
2022-10-14T03:11:10.451Z,1310.22
2022-10-14T03:13:39.267Z,1314.55
2022-10-14T03:16:07.938Z,1098.50
2022-10-14T03:18:40.991Z,963.72
2022-10-14T03:21:21.259Z,1108.75
2022-10-14T03:23:50.562Z,1010.25
2022-10-14T03:26:23.876Z,1103.40
2022-10-14T03:28:52.935Z,1083.43
2022-10-14T03:31:24.968Z,1045.10
2022-10-14T03:34:28.099Z,1100.97
2022-10-14T03:37:07.799Z,1060.22
2022-10-14T03:39:43.564Z,1104.18
2022-10-14T03:42:12.632Z,1115.07
2022-10-14T03:44:46.232Z,1230.57
2022-10-14T03:47:18.861Z,688.95
2022-10-14T03:49:47.876Z,1130.25
2022-10-14T03:52:46.589Z,1317.70
2022-10-14T03:55:24.603Z,1344.28
2022-10-14T03:57:53.622Z,1351.43
2022-10-14T04:00:22.151Z,1324.90
2022-10-14T04:03:00.489Z,1160.53
2022-10-14T04:05:39.279Z,1380.85
2022-10-14T04:08:14.305Z,1383.13
2022-10-14T04:10:53.368Z,1382.17
2022-10-14T04:13:21.984Z,1376.60
2022-10-14T04:15:50.025Z,1380.28
2022-10-14T04:18:28.586Z,1383.40
2022-10-14T04:21:01.911Z,1372.63
2022-10-14T04:23:31.964Z,1363.80
2022-10-14T04:26:08.168Z,1369.90
2022-10-14T04:28:38.697Z,1359.68
2022-10-14T04:31:13.473Z,1363.50
2022-10-14T04:33:59.639Z,1354.30
2022-10-14T04:36:32.891Z,1140.95
2022-10-14T04:39:04.696Z,1305.68
2022-10-14T04:41:32.830Z,1315.72
2022-10-14T04:44:02.494Z,1280.88
2022-10-14T04:46:46.460Z,18.67
2022-10-14T04:49:16.583Z,15.88
2022-10-14T04:51:52.912Z,15.20
2022-10-14T04:54:31.821Z,15.90
2022-10-14T04:57:01.648Z,17.90
2022-10-14T04:59:31.574Z,16.38
2022-10-14T05:02:18.895Z,19.50
2022-10-14T05:04:54.288Z,18.10
2022-10-14T05:07:22.930Z,19.27
2022-10-14T05:09:58.475Z,19.38
2022-10-14T05:12:35.885Z,19.67
2022-10-14T05:15:06.299Z,18.10
2022-10-14T05:17:45.669Z,18.83
2022-10-14T05:20:17.288Z,19.90
2022-10-14T05:22:49.523Z,17.77
2022-10-14T05:25:19.582Z,19.52
2022-10-14T05:27:48.326Z,20.25
2022-10-14T05:30:17.662Z,24.13
2022-10-14T05:32:50.203Z,20.95
2022-10-14T05:35:39.845Z,21.67
2022-10-14T05:38:08.926Z,16.70
2022-10-14T05:40:43.646Z,18.63
2022-10-14T05:43:12.133Z,20.77
2022-10-14T05:45:44.452Z,17.75
2022-10-14T05:48:13.010Z,19.63
2022-10-14T05:50:42.722Z,19.50
2022-10-14T05:53:14.336Z,20.27
2022-10-14T05:55:47.682Z,20.85
2022-10-14T05:58:16.089Z,18.15
2022-10-14T06:00:46.005Z,19.25
2022-10-14T06:03:18.820Z,17.85
2022-10-14T06:05:47.055Z,18.08
2022-10-14T06:08:16.314Z,21.88
2022-10-14T06:10:47.349Z,19.48
2022-10-14T06:13:15.489Z,20.95
2022-10-14T06:15:46.545Z,21.10
2022-10-14T06:18:14.882Z,18.63
2022-10-14T06:20:42.949Z,18.33
2022-10-14T06:23:11.071Z,18.75
2022-10-14T06:25:39.106Z,19.10
2022-10-14T06:28:08.642Z,19.25
2022-10-14T06:30:36.786Z,16.30
2022-10-14T06:33:04.935Z,16.88
2022-10-14T06:35:33.053Z,20.88
2022-10-14T06:38:01.176Z,17.13
2022-10-14T06:40:29.193Z,17.75
2022-10-14T06:42:59.277Z,20.83
2022-10-14T06:45:28.683Z,21.48
2022-10-14T06:47:58.479Z,22.27
2022-10-14T06:50:26.498Z,23.40
2022-10-14T06:52:54.601Z,18.15
2022-10-14T06:55:22.602Z,19.92
2022-10-14T06:57:50.830Z,20.60
2022-10-14T07:00:19.370Z,20.08
2022-10-14T07:02:48.732Z,18.83
2022-10-14T07:05:17.027Z,20.27
2022-10-14T07:07:45.128Z,17.48
2022-10-14T07:10:13.302Z,18.75
2022-10-14T07:12:41.469Z,19.40
2022-10-14T07:15:10.757Z,19.58
2022-10-14T07:17:39.579Z,23.75
2022-10-14T07:20:10.173Z,21.00
2022-10-14T07:22:39.045Z,17.20
2022-10-14T07:25:08.397Z,19.83
2022-10-14T07:27:37.106Z,18.10
2022-10-14T07:30:06.554Z,24.05
2022-10-14T07:32:37.732Z,19.33
2022-10-14T07:35:06.625Z,22.40
2022-10-14T07:37:36.082Z,21.48
2022-10-14T07:40:06.472Z,20.58
2022-10-14T07:42:35.524Z,17.13
2022-10-14T07:45:03.900Z,19.55
2022-10-14T07:47:33.159Z,19.00
2022-10-14T07:50:01.463Z,17.95
2022-10-14T07:52:29.520Z,21.85
2022-10-14T07:54:58.888Z,23.27
2022-10-14T07:57:27.690Z,21.10
2022-10-14T07:59:55.833Z,20.67
2022-10-14T08:02:24.168Z,20.35
2022-10-14T08:05:04.097Z,25.48
2022-10-14T08:07:41.432Z,18.70
2022-10-14T08:10:10.883Z,22.40
2022-10-14T08:12:38.974Z,20.08
2022-10-14T08:15:07.912Z,18.20
2022-10-14T08:17:36.114Z,19.90
2022-10-14T08:20:04.696Z,18.73
2022-10-14T08:22:32.687Z,20.13
2022-10-14T08:25:00.654Z,22.23
2022-10-14T08:27:30.019Z,20.02
2022-10-14T08:29:58.058Z,19.65
2022-10-14T08:32:26.068Z,21.08
2022-10-14T08:34:55.920Z,20.67
2022-10-14T08:37:24.278Z,17.67
2022-10-14T08:39:52.306Z,17.88
2022-10-14T08:42:34.490Z,16.25
2022-10-14T08:45:08.839Z,19.77
2022-10-14T08:47:38.569Z,18.33
2022-10-14T08:50:18.359Z,17.70
2022-10-14T08:52:51.486Z,17.80
2022-10-14T08:55:27.971Z,18.52
2022-10-14T08:58:01.090Z,18.23
2022-10-14T09:00:31.680Z,18.13
2022-10-14T09:03:03.303Z,16.27
2022-10-14T09:05:31.650Z,19.73
2022-10-14T09:08:01.494Z,20.98
2022-10-14T09:10:33.969Z,17.17
2022-10-14T09:13:10.983Z,17.58
2022-10-14T09:15:43.214Z,17.00
2022-10-14T09:18:24.085Z,18.13
2022-10-14T09:20:53.777Z,18.15
2022-10-14T09:23:25.327Z,15.70
2022-10-14T09:25:57.723Z,16.25
2022-10-14T09:28:34.706Z,16.65
2022-10-14T09:31:02.914Z,12.98
2022-10-14T09:33:31.481Z,15.02
2022-10-14T09:38:32.766Z,13.27
2022-10-14T09:41:01.690Z,13.18
2022-10-14T09:43:31.116Z,14.50
2022-10-14T09:46:02.134Z,14.98
2022-10-14T09:48:39.065Z,15.25
2022-10-14T09:51:10.034Z,14.98
2022-10-14T09:53:42.205Z,16.50
2022-10-14T09:56:11.401Z,14.35
2022-10-14T09:58:47.474Z,12.73
2022-10-14T10:01:16.914Z,14.63
2022-10-14T10:03:46.015Z,13.82
2022-10-14T10:06:19.050Z,12.68
2022-10-14T10:08:57.489Z,14.38
2022-10-14T10:11:30.757Z,13.10
2022-10-14T10:14:00.580Z,14.00
2022-10-14T10:16:31.351Z,15.25
2022-10-14T10:19:19.820Z,14.45
2022-10-14T10:21:48.133Z,15.80
2022-10-14T10:24:25.919Z,13.20
2022-10-14T10:26:56.861Z,15.63
2022-10-14T10:29:35.472Z,14.75
2022-10-14T10:32:12.989Z,13.48
2022-10-14T10:34:57.317Z,13.63
2022-10-14T10:37:58.470Z,14.75
2022-10-14T10:40:35.753Z,13.88
2022-10-14T10:43:38.798Z,11.93
2022-10-14T10:46:18.982Z,12.70
2022-10-14T10:48:50.173Z,14.05
2022-10-14T10:51:26.641Z,11.38
2022-10-14T10:54:07.658Z,11.50
2022-10-14T10:56:42.504Z,10.27
2022-10-14T10:59:36.517Z,11.18
2022-10-14T11:02:45.957Z,12.45
2022-10-14T11:05:22.085Z,13.23
2022-10-14T11:08:14.777Z,11.43
2022-10-14T11:11:12.666Z,14.25
2022-10-14T11:13:48.141Z,11.20
2022-10-14T11:16:26.557Z,11.13
2022-10-14T11:19:03.107Z,12.93
2022-10-14T11:21:39.765Z,9.18
2022-10-14T11:26:59.348Z,12.38
2022-10-14T11:30:03.362Z,10.20
2022-10-14T11:32:39.908Z,11.23
2022-10-14T11:35:22.934Z,11.07
2022-10-14T11:38:02.096Z,11.30
2022-10-14T11:40:38.730Z,9.85
2022-10-14T11:43:19.912Z,9.85
2022-10-14T11:45:54.893Z,10.65
2022-10-14T11:48:44.517Z,10.77
2022-10-14T11:51:20.324Z,8.90
2022-10-14T11:53:59.513Z,9.55
2022-10-14T11:56:35.699Z,10.32
2022-10-14T11:59:10.521Z,8.52
2022-10-14T12:01:44.920Z,8.65
2022-10-14T12:04:25.376Z,8.80
2022-10-14T12:07:02.097Z,11.57
2022-10-14T12:09:39.133Z,9.65
2022-10-14T12:12:10.098Z,9.70
2022-10-14T12:14:40.969Z,10.43
2022-10-14T12:17:20.638Z,9.65
2022-10-14T12:19:49.727Z,9.98
2022-10-14T12:22:23.235Z,7.80
2022-10-14T12:24:54.614Z,9.02
2022-10-14T12:27:25.313Z,7.20
2022-10-14T12:29:55.190Z,9.85
2022-10-14T12:32:25.997Z,9.65
2022-10-14T12:34:55.286Z,11.30
2022-10-14T12:40:28.830Z,8.05
2022-10-14T12:43:03.534Z,9.52
2022-10-14T12:45:34.670Z,9.68
2022-10-14T12:48:12.912Z,8.63
2022-10-14T12:50:42.131Z,8.25
2022-10-14T12:53:22.588Z,6.93
2022-10-14T12:55:53.411Z,8.45
2022-10-14T12:58:29.424Z,8.38
2022-10-14T13:01:01.638Z,7.82
2022-10-14T13:03:34.017Z,8.00
2022-10-14T13:06:42.318Z,7.43
2022-10-14T13:09:36.427Z,7.32
2022-10-14T13:12:44.015Z,11.75
2022-10-14T13:15:34.150Z,7.40
2022-10-14T13:18:35.908Z,7.68
2022-10-14T13:21:05.708Z,8.68
2022-10-14T13:23:40.483Z,6.97
2022-10-14T13:26:23.070Z,8.50
2022-10-14T13:29:02.966Z,9.23
2022-10-14T13:31:38.562Z,8.10
2022-10-14T13:34:18.995Z,8.27
2022-10-14T13:37:01.897Z,8.73
2022-10-14T13:39:33.454Z,10.05
2022-10-14T13:42:03.759Z,9.07
2022-10-14T13:44:31.906Z,8.90
2022-10-14T13:47:04.694Z,10.13
2022-10-14T13:49:37.655Z,11.73
2022-10-14T13:52:08.130Z,9.13
2022-10-14T13:54:36.475Z,9.40
2022-10-14T13:57:38.286Z,9.32
2022-10-14T14:02:54.992Z,9.18
2022-10-14T14:05:26.662Z,10.68
2022-10-14T14:11:15.040Z,11.43
2022-10-14T14:13:55.818Z,11.27
2022-10-14T14:16:28.703Z,10.90
2022-10-14T14:19:07.969Z,12.05
2022-10-14T14:21:36.872Z,12.52
2022-10-14T14:24:16.361Z,10.50
2022-10-14T14:26:54.925Z,11.40
2022-10-14T14:29:29.053Z,13.50
2022-10-14T14:32:07.974Z,11.77
2022-10-14T14:34:39.840Z,13.35
2022-10-14T14:40:08.196Z,10.75
2022-10-14T14:42:39.632Z,12.80
2022-10-14T14:45:16.769Z,12.32
2022-10-14T14:47:45.719Z,11.10
2022-10-14T14:50:29.901Z,11.55
2022-10-14T14:53:02.983Z,10.65
2022-10-14T14:55:43.104Z,11.52
2022-10-14T14:58:28.251Z,11.60
2022-10-14T15:00:58.069Z,10.48
2022-10-14T15:03:28.069Z,11.23
2022-10-14T15:06:00.122Z,11.85
2022-10-14T15:08:34.809Z,12.10
2022-10-14T15:11:03.595Z,10.45
2022-10-14T15:13:44.534Z,14.02
2022-10-14T15:16:13.951Z,11.77
2022-10-14T15:18:43.594Z,12.80
2022-10-14T15:21:19.769Z,12.93
2022-10-14T15:24:03.185Z,11.05
2022-10-14T15:26:34.619Z,11.82
2022-10-14T15:29:14.571Z,11.85
2022-10-14T15:31:46.322Z,15.40
2022-10-14T15:34:20.323Z,12.05
2022-10-14T15:36:52.159Z,13.70
2022-10-14T15:39:20.560Z,12.88
2022-10-14T15:41:48.829Z,12.15
2022-10-14T15:44:16.917Z,12.10
2022-10-14T15:47:04.528Z,11.70
2022-10-14T15:49:37.358Z,11.93
2022-10-14T15:52:05.522Z,10.43
2022-10-14T15:54:33.580Z,11.75
2022-10-14T15:57:01.678Z,10.32
2022-10-14T15:59:29.653Z,12.80
2022-10-14T16:01:59.386Z,12.32
2022-10-14T16:04:28.038Z,11.88
2022-10-14T16:06:57.659Z,12.55
2022-10-14T16:09:27.612Z,11.25
2022-10-14T16:11:58.320Z,14.80
2022-10-14T16:14:27.062Z,11.63
2022-10-14T16:16:55.826Z,10.55
2022-10-14T16:19:26.721Z,10.18
2022-10-14T16:21:54.837Z,13.27
2022-10-14T16:24:25.466Z,11.57
2022-10-14T16:26:54.758Z,10.70
2022-10-14T16:29:22.840Z,13.20
2022-10-14T16:31:52.395Z,10.50
2022-10-14T16:34:22.346Z,13.45
2022-10-14T16:36:52.616Z,14.15
2022-10-14T16:39:21.052Z,11.15
2022-10-14T16:41:49.722Z,11.60
2022-10-14T16:44:27.524Z,14.93
2022-10-14T16:47:15.003Z,14.13
2022-10-14T16:49:45.072Z,13.20
2022-10-14T16:52:18.056Z,16.30
2022-10-14T16:54:46.212Z,14.27
2022-10-14T16:57:14.475Z,15.48
2022-10-14T16:59:42.703Z,17.98
2022-10-14T17:02:15.257Z,16.15
2022-10-14T17:04:46.290Z,18.25
2022-10-14T17:07:16.691Z,19.55
2022-10-14T17:09:46.108Z,17.15
2022-10-14T17:12:14.469Z,15.50
2022-10-14T17:14:42.953Z,17.45
2022-10-14T17:17:12.375Z,16.15
2022-10-14T17:19:40.377Z,17.33
2022-10-14T17:22:08.463Z,12.02
2022-10-14T17:24:36.451Z,13.55
2022-10-14T17:27:11.709Z,16.30
2022-10-14T17:29:40.053Z,16.35
2022-10-14T17:32:08.355Z,13.63
2022-10-14T17:34:36.388Z,14.57
2022-10-14T17:39:41.234Z,15.00
2022-10-14T17:42:09.222Z,15.57
2022-10-14T17:44:43.414Z,13.32
2022-10-14T17:47:12.157Z,14.93
2022-10-14T17:49:40.447Z,14.20
2022-10-14T17:52:08.442Z,17.25
2022-10-14T17:54:36.450Z,11.57
2022-10-14T17:57:04.611Z,14.23
2022-10-14T17:59:32.788Z,13.30
2022-10-14T18:02:26.692Z,10.98
2022-10-14T18:04:55.019Z,9.90
2022-10-14T18:07:23.316Z,12.20
2022-10-14T18:09:51.636Z,10.65
2022-10-14T18:12:20.199Z,13.55
2022-10-14T18:14:48.566Z,11.73
2022-10-14T18:17:18.166Z,13.20
2022-10-14T18:19:51.218Z,9.75
2022-10-14T18:22:20.217Z,11.25
2022-10-14T18:24:48.343Z,11.02
2022-10-14T18:27:16.410Z,11.85
2022-10-14T18:29:44.383Z,11.80
2022-10-14T18:32:12.439Z,11.57
2022-10-14T18:34:41.786Z,11.23
2022-10-14T18:37:09.938Z,14.32
2022-10-14T18:39:37.965Z,10.43
2022-10-14T18:42:05.987Z,10.85
2022-10-14T18:44:33.999Z,11.05
2022-10-14T18:47:01.987Z,12.55
2022-10-14T18:49:30.120Z,12.05
2022-10-14T18:51:59.492Z,11.02
2022-10-14T18:54:28.126Z,10.75
2022-10-14T18:56:56.173Z,12.13
2022-10-14T18:59:24.932Z,10.73
2022-10-14T19:01:54.083Z,11.88
2022-10-14T19:04:24.738Z,10.23
2022-10-14T19:06:52.723Z,12.10
2022-10-14T19:09:28.806Z,14.18
2022-10-14T19:11:58.896Z,11.18
2022-10-14T19:14:28.566Z,15.07
2022-10-14T19:16:56.757Z,12.18
2022-10-14T19:19:25.427Z,9.85
2022-10-14T19:21:54.414Z,13.27
2022-10-14T19:24:24.156Z,11.05
2022-10-14T19:26:54.217Z,12.00
2022-10-14T19:29:22.505Z,12.07
2022-10-14T19:31:51.613Z,12.70
2022-10-14T19:34:19.680Z,12.82
2022-10-14T19:36:47.675Z,13.30
2022-10-14T19:39:18.835Z,13.05
2022-10-14T19:41:48.431Z,12.95
2022-10-14T19:44:17.799Z,16.90
2022-10-14T19:46:46.662Z,14.65
2022-10-14T19:49:16.621Z,11.10
2022-10-14T19:51:45.113Z,11.43
2022-10-14T19:54:13.900Z,11.82
2022-10-14T19:56:42.373Z,9.88
2022-10-14T19:59:13.435Z,12.95
2022-10-14T20:01:41.940Z,13.13
2022-10-14T20:04:10.189Z,11.02
2022-10-14T20:06:40.111Z,8.13
2022-10-14T20:09:09.628Z,11.40
2022-10-14T20:11:37.735Z,8.40
2022-10-14T20:14:05.826Z,11.93
2022-10-14T20:16:35.680Z,9.52
2022-10-14T20:19:03.828Z,9.48
2022-10-14T20:21:32.007Z,11.30
2022-10-14T20:24:00.495Z,9.05
2022-10-14T20:26:29.145Z,12.00
2022-10-14T20:28:57.221Z,10.35
2022-10-14T20:31:26.275Z,11.10
2022-10-14T20:33:57.523Z,9.63
2022-10-14T20:36:25.667Z,11.23
2022-10-14T20:38:53.740Z,11.18
2022-10-14T20:41:23.530Z,12.40
2022-10-14T20:43:52.724Z,10.10
2022-10-14T20:46:21.918Z,12.05
2022-10-14T20:48:53.770Z,9.50
2022-10-14T20:51:23.683Z,10.82
2022-10-14T20:53:58.564Z,13.77
2022-10-14T20:56:31.257Z,11.80
2022-10-14T20:59:00.781Z,11.40
2022-10-14T21:01:30.606Z,10.18
2022-10-14T21:04:01.607Z,10.55
2022-10-14T21:06:31.400Z,11.50
2022-10-14T21:09:00.010Z,10.77
2022-10-14T21:11:28.895Z,9.82
2022-10-14T21:13:59.115Z,10.23
2022-10-14T21:16:28.704Z,10.13
2022-10-14T21:18:58.633Z,9.73
2022-10-14T21:21:28.402Z,9.95
2022-10-14T21:23:58.125Z,11.05
2022-10-14T21:26:27.068Z,11.43
2022-10-14T21:28:55.125Z,13.57
2022-10-14T21:31:23.765Z,9.88
2022-10-14T21:33:59.912Z,11.50
2022-10-14T21:36:30.922Z,9.60
2022-10-14T21:39:01.173Z,10.25
2022-10-14T21:41:29.593Z,11.30
2022-10-14T21:43:59.410Z,12.95
2022-10-14T21:46:28.462Z,11.82
2022-10-14T21:48:58.765Z,10.88
2022-10-14T21:51:30.351Z,11.68
2022-10-14T21:54:00.270Z,11.52
2022-10-14T21:56:30.031Z,13.10
2022-10-14T21:58:58.639Z,10.43
2022-10-14T22:01:28.490Z,11.60
2022-10-14T22:03:58.047Z,12.85
2022-10-14T22:06:27.836Z,11.68
2022-10-14T22:08:57.503Z,11.73
2022-10-14T22:11:29.556Z,12.95
2022-10-14T22:13:59.256Z,12.68
2022-10-14T22:16:28.983Z,11.85
2022-10-14T22:18:59.620Z,9.27
2022-10-14T22:21:29.496Z,12.98
2022-10-14T22:23:58.616Z,12.57
2022-10-14T22:26:29.839Z,13.38
2022-10-14T22:29:00.071Z,9.70
2022-10-14T22:31:29.783Z,14.85
2022-10-14T22:33:58.964Z,11.48
2022-10-14T22:36:29.797Z,12.32
2022-10-14T22:38:59.509Z,12.80
2022-10-14T22:41:34.957Z,14.07
2022-10-14T22:46:34.482Z,12.38
2022-10-14T22:49:03.413Z,12.50
2022-10-14T22:51:32.953Z,14.25
2022-10-14T22:54:02.154Z,11.35
2022-10-14T22:56:32.307Z,13.65
2022-10-14T22:59:02.061Z,11.45
2022-10-14T23:01:30.615Z,11.88
2022-10-14T23:04:00.425Z,11.52
2022-10-14T23:06:31.229Z,11.57
2022-10-14T23:09:00.940Z,12.55
2022-10-14T23:11:32.071Z,14.10
2022-10-14T23:14:02.880Z,13.55
2022-10-14T23:16:34.558Z,12.68
2022-10-14T23:19:02.677Z,13.15
2022-10-14T23:21:32.390Z,16.10
2022-10-14T23:24:02.139Z,16.10
2022-10-14T23:26:34.549Z,12.93
2022-10-14T23:29:05.022Z,12.88
2022-10-14T23:31:35.603Z,14.82
2022-10-14T23:34:06.424Z,15.05
2022-10-14T23:36:34.846Z,13.05
2022-10-14T23:39:02.851Z,14.23
2022-10-14T23:41:32.279Z,15.50
2022-10-14T23:44:00.343Z,13.05
2022-10-14T23:46:28.477Z,13.25
2022-10-14T23:49:06.719Z,12.23
2022-10-14T23:51:42.378Z,17.55
2022-10-14T23:54:10.453Z,14.52
2022-10-14T23:56:40.036Z,14.48
2022-10-14T23:59:08.070Z,15.55
